createdAt,value
2022-12-15T00:02:28.108Z,82.60
2022-12-15T00:05:13.733Z,82.20
2022-12-15T00:07:59.621Z,82.20
2022-12-15T00:10:45.554Z,83.20
2022-12-15T00:13:32.020Z,83.80
2022-12-15T00:16:18.019Z,82.60
2022-12-15T00:19:03.887Z,82.70
2022-12-15T00:21:49.728Z,84.30
2022-12-15T00:24:35.602Z,85.10
2022-12-15T00:27:33.087Z,84.60
2022-12-15T00:30:18.869Z,85.20
2022-12-15T00:33:08.903Z,83.60
2022-12-15T00:35:56.401Z,83.80
2022-12-15T00:38:46.829Z,83.50
2022-12-15T00:41:32.290Z,82.90
2022-12-15T00:44:33.182Z,83.20
2022-12-15T00:47:01.497Z,82.40
2022-12-15T00:53:15.458Z,81.00
2022-12-15T00:56:01.384Z,81.30
2022-12-15T00:58:49.209Z,81.40
2022-12-15T01:01:38.104Z,81.70
2022-12-15T01:04:24.149Z,81.10
2022-12-15T01:07:10.640Z,80.80
2022-12-15T01:09:56.590Z,80.50
2022-12-15T01:12:42.397Z,80.00
2022-12-15T01:15:28.427Z,79.70
2022-12-15T01:18:14.566Z,79.50
2022-12-15T01:20:44.582Z,79.00
2022-12-15T01:23:12.342Z,78.60
2022-12-15T01:25:42.610Z,78.80
2022-12-15T01:28:11.550Z,79.20
2022-12-15T01:30:39.275Z,79.20
2022-12-15T01:33:07.890Z,79.10
2022-12-15T01:35:39.521Z,79.00
2022-12-15T01:38:12.019Z,79.00
2022-12-15T01:40:46.122Z,78.90
2022-12-15T01:43:15.770Z,78.10
2022-12-15T01:45:48.447Z,78.10
2022-12-15T01:48:19.812Z,77.70
2022-12-15T01:50:50.199Z,77.40
2022-12-15T01:53:18.392Z,76.80
2022-12-15T01:55:47.943Z,76.80
2022-12-15T01:58:17.554Z,76.70
2022-12-15T02:00:46.023Z,76.50
2022-12-15T02:03:14.587Z,76.40
2022-12-15T02:05:43.721Z,76.10
2022-12-15T02:08:14.447Z,75.10
2022-12-15T02:11:12.101Z,75.10
2022-12-15T02:13:58.214Z,75.10
2022-12-15T02:16:51.655Z,75.20
2022-12-15T02:19:32.587Z,75.00
2022-12-15T02:22:32.397Z,74.00
2022-12-15T02:25:13.553Z,72.80
2022-12-15T02:27:41.723Z,73.90
2022-12-15T02:30:12.975Z,70.70
2022-12-15T02:32:56.309Z,72.40
2022-12-15T02:35:32.531Z,73.00
2022-12-15T02:38:01.065Z,73.20
2022-12-15T02:40:28.605Z,73.30
2022-12-15T02:42:57.997Z,73.20
2022-12-15T02:45:32.311Z,69.80
2022-12-15T02:48:06.374Z,68.60
2022-12-15T02:50:36.633Z,69.10
2022-12-15T02:53:16.370Z,71.00
2022-12-15T02:55:59.290Z,70.90
2022-12-15T02:58:26.844Z,71.60
2022-12-15T03:01:02.842Z,70.60
2022-12-15T03:03:32.219Z,70.70
2022-12-15T03:06:02.577Z,67.20
2022-12-15T03:08:30.147Z,69.30
2022-12-15T03:10:58.956Z,70.90
2022-12-15T03:13:26.520Z,70.00
2022-12-15T03:15:54.795Z,67.80
2022-12-15T03:18:22.348Z,64.40
2022-12-15T03:20:49.901Z,65.70
2022-12-15T03:23:18.298Z,67.60
2022-12-15T03:25:49.776Z,67.80
2022-12-15T03:28:18.943Z,69.30
2022-12-15T03:30:50.457Z,66.40
2022-12-15T03:33:19.055Z,67.80
2022-12-15T03:35:46.616Z,69.10
2022-12-15T03:38:14.590Z,67.50
2022-12-15T03:40:45.115Z,65.90
2022-12-15T03:43:13.137Z,67.10
2022-12-15T03:45:40.756Z,66.00
2022-12-15T03:48:09.998Z,64.00
2022-12-15T03:50:38.115Z,67.10
2022-12-15T03:53:06.238Z,66.20
2022-12-15T03:55:35.536Z,64.90
2022-12-15T03:58:03.319Z,64.70
2022-12-15T04:00:31.826Z,63.70
2022-12-15T04:02:59.838Z,62.60
2022-12-15T04:05:29.656Z,65.40
2022-12-15T04:07:58.669Z,66.60
2022-12-15T04:10:33.357Z,65.30
2022-12-15T04:13:02.753Z,64.70
2022-12-15T04:15:32.338Z,66.60
2022-12-15T04:18:01.424Z,65.20
2022-12-15T04:20:30.704Z,66.20
2022-12-15T04:23:33.803Z,64.60
2022-12-15T04:26:32.266Z,65.10
2022-12-15T04:29:22.040Z,66.40
2022-12-15T04:32:08.399Z,66.90
2022-12-15T04:34:54.733Z,66.30
2022-12-15T04:37:42.565Z,66.10
2022-12-15T04:40:28.529Z,67.90
2022-12-15T04:43:15.340Z,66.80
2022-12-15T04:46:01.267Z,67.70
2022-12-15T04:48:48.014Z,66.20
2022-12-15T04:51:34.071Z,63.20
2022-12-15T04:54:20.489Z,66.70
2022-12-15T04:57:06.479Z,66.30
2022-12-15T04:59:53.393Z,66.90
2022-12-15T05:02:40.279Z,61.80
2022-12-15T05:05:26.401Z,63.50
2022-12-15T05:08:16.423Z,63.30
2022-12-15T05:11:02.583Z,65.00
2022-12-15T05:13:50.071Z,64.10
2022-12-15T05:16:35.813Z,63.80
2022-12-15T05:19:23.020Z,65.40
2022-12-15T05:22:08.825Z,63.50
2022-12-15T05:24:55.031Z,63.80
2022-12-15T05:27:40.946Z,63.50
2022-12-15T05:30:27.332Z,62.90
2022-12-15T05:32:55.281Z,63.20
2022-12-15T05:35:23.475Z,63.00
2022-12-15T05:37:51.227Z,59.00
2022-12-15T05:40:19.617Z,57.90
2022-12-15T05:42:50.171Z,58.20
2022-12-15T05:45:17.978Z,59.90
2022-12-15T05:47:50.625Z,62.70
2022-12-15T05:50:18.484Z,64.30
2022-12-15T05:52:49.551Z,63.50
2022-12-15T05:55:17.739Z,63.10
2022-12-15T05:57:55.594Z,63.70
2022-12-15T06:00:24.048Z,63.60
2022-12-15T06:02:52.169Z,63.20
2022-12-15T06:05:19.847Z,64.80
2022-12-15T06:07:48.359Z,62.90
2022-12-15T06:10:21.041Z,62.00
2022-12-15T06:12:48.897Z,61.80
2022-12-15T06:15:17.619Z,62.90
2022-12-15T06:17:45.267Z,62.50
2022-12-15T06:20:22.957Z,61.30
2022-12-15T06:22:51.293Z,59.10
2022-12-15T06:25:21.382Z,60.20
2022-12-15T06:27:50.157Z,60.70
2022-12-15T06:30:19.539Z,60.30
2022-12-15T06:32:50.018Z,60.10
2022-12-15T06:35:17.616Z,63.20
2022-12-15T06:37:45.268Z,60.60
2022-12-15T06:40:13.678Z,62.10
2022-12-15T06:42:41.358Z,62.90
2022-12-15T06:45:10.250Z,63.80
2022-12-15T06:47:37.877Z,60.10
2022-12-15T06:50:07.470Z,62.40
2022-12-15T06:52:36.788Z,63.60
2022-12-15T06:55:04.876Z,60.70
2022-12-15T06:57:32.687Z,62.60
2022-12-15T07:00:00.748Z,59.60
2022-12-15T07:02:31.563Z,58.90
2022-12-15T07:05:00.860Z,60.70
2022-12-15T07:07:28.831Z,62.70
2022-12-15T07:09:57.023Z,62.30
2022-12-15T07:12:25.331Z,61.20
2022-12-15T07:14:56.053Z,60.30
2022-12-15T07:17:25.030Z,58.80
2022-12-15T07:19:53.026Z,59.30
2022-12-15T07:22:22.192Z,57.00
2022-12-15T07:24:49.857Z,59.60
2022-12-15T07:27:18.501Z,59.90
2022-12-15T07:29:46.930Z,59.60
2022-12-15T07:32:18.918Z,59.80
2022-12-15T07:34:46.562Z,59.70
2022-12-15T07:37:16.481Z,60.30
2022-12-15T07:39:44.221Z,61.10
2022-12-15T07:42:14.240Z,60.30
2022-12-15T07:44:41.973Z,61.10
2022-12-15T07:47:10.233Z,58.90
2022-12-15T07:49:37.843Z,57.90
2022-12-15T07:52:08.369Z,60.90
2022-12-15T07:54:36.828Z,57.80
2022-12-15T07:57:06.735Z,58.90
2022-12-15T07:59:35.657Z,59.60
2022-12-15T08:02:04.842Z,58.10
2022-12-15T08:04:33.338Z,59.40
2022-12-15T08:07:01.380Z,59.30
2022-12-15T08:09:29.434Z,60.20
2022-12-15T08:11:57.091Z,61.40
2022-12-15T08:14:25.226Z,57.80
2022-12-15T08:16:59.935Z,59.30
2022-12-15T08:19:28.701Z,58.60
2022-12-15T08:21:56.359Z,57.90
2022-12-15T08:24:24.477Z,57.90
2022-12-15T08:26:53.393Z,58.60
2022-12-15T08:32:12.254Z,59.80
2022-12-15T08:34:39.960Z,58.40
2022-12-15T08:37:09.501Z,57.90
2022-12-15T08:39:37.802Z,59.20
2022-12-15T08:42:05.529Z,59.20
2022-12-15T08:44:42.245Z,59.90
2022-12-15T08:47:09.867Z,59.50
2022-12-15T08:49:39.070Z,57.90
2022-12-15T08:52:06.673Z,61.20
2022-12-15T08:54:36.838Z,59.50
2022-12-15T08:57:06.561Z,58.90
2022-12-15T08:59:35.383Z,60.10
2022-12-15T09:02:03.183Z,59.70
2022-12-15T09:04:31.056Z,60.40
2022-12-15T09:06:58.708Z,60.10
2022-12-15T09:09:27.208Z,59.90
2022-12-15T09:11:54.883Z,59.80
2022-12-15T09:14:29.063Z,59.80
2022-12-15T09:16:58.492Z,60.20
2022-12-15T09:19:26.464Z,59.50
2022-12-15T09:21:54.333Z,61.40
2022-12-15T09:24:34.040Z,58.90
2022-12-15T09:27:03.760Z,57.60
2022-12-15T09:29:31.327Z,58.00
2022-12-15T09:31:58.823Z,58.40
2022-12-15T09:34:27.477Z,58.20
2022-12-15T09:36:55.176Z,59.40
2022-12-15T09:39:22.917Z,59.70
2022-12-15T09:41:53.882Z,59.20
2022-12-15T09:44:22.632Z,59.10
2022-12-15T09:47:09.629Z,58.70
2022-12-15T09:49:50.443Z,58.80
2022-12-15T09:52:19.965Z,59.90
2022-12-15T09:54:47.803Z,57.50
2022-12-15T09:57:34.858Z,58.20
2022-12-15T10:00:07.973Z,58.90
2022-12-15T10:02:36.749Z,59.30
2022-12-15T10:05:17.397Z,59.00
2022-12-15T10:07:50.332Z,59.00
2022-12-15T10:10:23.129Z,59.50
2022-12-15T10:13:01.084Z,59.10
2022-12-15T10:15:40.868Z,59.90
2022-12-15T10:18:19.784Z,59.10
2022-12-15T10:23:36.467Z,59.00
2022-12-15T10:26:23.967Z,59.30
2022-12-15T10:29:10.124Z,58.80
2022-12-15T10:31:52.396Z,59.40
2022-12-15T10:34:28.189Z,59.40
2022-12-15T10:36:56.410Z,59.60
2022-12-15T10:39:24.434Z,59.90
2022-12-15T10:42:14.728Z,60.40
2022-12-15T10:44:43.711Z,60.90
2022-12-15T10:47:21.275Z,60.90
2022-12-15T10:49:48.963Z,61.10
2022-12-15T10:52:20.540Z,61.70
2022-12-15T10:54:49.969Z,61.40
2022-12-15T10:57:17.478Z,61.70
2022-12-15T10:59:45.823Z,62.00
2022-12-15T11:05:17.878Z,62.30
2022-12-15T11:07:49.876Z,62.30
2022-12-15T11:10:24.838Z,62.50
2022-12-15T11:13:10.816Z,62.60
2022-12-15T11:15:40.058Z,63.10
2022-12-15T11:18:14.599Z,63.30
2022-12-15T11:20:45.296Z,63.60
2022-12-15T11:23:25.929Z,63.90
2022-12-15T11:26:04.899Z,64.00
2022-12-15T11:28:47.261Z,64.10
2022-12-15T11:31:19.175Z,64.40
2022-12-15T11:33:46.814Z,64.60
2022-12-15T11:36:19.883Z,64.70
2022-12-15T11:38:51.074Z,64.80
2022-12-15T11:41:47.740Z,65.10
2022-12-15T11:44:24.134Z,65.20
2022-12-15T11:47:10.668Z,65.40
2022-12-15T11:49:51.157Z,65.60
2022-12-15T11:52:37.192Z,65.70
2022-12-15T11:55:18.676Z,65.80
2022-12-15T11:57:47.564Z,65.90
2022-12-15T12:00:18.308Z,66.20
2022-12-15T12:02:52.174Z,66.20
2022-12-15T12:05:25.680Z,66.30
2022-12-15T12:08:02.411Z,66.40
2022-12-15T12:10:45.325Z,67.30
2022-12-15T12:13:24.801Z,66.60
2022-12-15T12:15:52.471Z,66.80
2022-12-15T12:18:20.126Z,67.00
2022-12-15T12:20:52.656Z,67.00
2022-12-15T12:23:20.241Z,67.10
2022-12-15T12:26:02.795Z,67.20
2022-12-15T12:28:40.194Z,67.50
2022-12-15T12:31:13.930Z,67.70
2022-12-15T12:33:44.967Z,67.70
2022-12-15T12:36:14.095Z,67.70
2022-12-15T12:38:50.792Z,67.80
2022-12-15T12:41:18.907Z,68.00
2022-12-15T12:43:53.087Z,68.20
2022-12-15T12:46:23.556Z,68.30
2022-12-15T12:48:57.897Z,68.40
2022-12-15T12:51:28.228Z,68.50
2022-12-15T12:53:56.470Z,68.60
2022-12-15T12:56:36.606Z,68.70
2022-12-15T12:59:09.098Z,68.80
2022-12-15T13:01:38.580Z,68.90
2022-12-15T13:04:11.172Z,68.90
2022-12-15T13:06:41.794Z,69.20
2022-12-15T13:09:19.288Z,69.00
2022-12-15T13:11:49.756Z,69.00
2022-12-15T13:14:36.491Z,69.10
2022-12-15T13:17:25.961Z,69.00
2022-12-15T13:19:59.874Z,69.10
2022-12-15T13:22:38.199Z,69.20
2022-12-15T13:25:24.208Z,69.30
2022-12-15T13:27:52.440Z,69.40
2022-12-15T13:30:20.039Z,69.30
2022-12-15T13:32:51.914Z,70.00
2022-12-15T13:35:20.597Z,69.30
2022-12-15T13:37:59.425Z,69.20
2022-12-15T13:40:27.044Z,69.40
2022-12-15T13:43:06.926Z,69.30
2022-12-15T13:45:43.804Z,69.30
2022-12-15T13:48:25.630Z,69.50
2022-12-15T13:50:57.731Z,69.50
2022-12-15T13:53:27.706Z,69.50
2022-12-15T13:56:18.109Z,69.70
2022-12-15T14:01:36.646Z,69.70
2022-12-15T14:04:12.847Z,69.70
2022-12-15T14:06:44.587Z,69.90
2022-12-15T14:09:14.557Z,70.00
2022-12-15T14:11:58.078Z,70.20
2022-12-15T14:14:28.790Z,70.30
2022-12-15T14:17:00.971Z,70.30
2022-12-15T14:19:40.785Z,70.50
2022-12-15T14:22:28.644Z,70.70
2022-12-15T14:25:01.820Z,71.00
2022-12-15T14:27:30.817Z,71.20
2022-12-15T14:30:16.940Z,71.40
2022-12-15T14:32:46.025Z,71.50
2022-12-15T14:35:22.573Z,71.80
2022-12-15T14:37:50.266Z,72.00
2022-12-15T14:40:20.328Z,72.00
2022-12-15T14:42:52.887Z,72.00
2022-12-15T14:45:31.417Z,72.70
2022-12-15T14:48:39.056Z,72.70
2022-12-15T14:50:49.208Z,73.30
2022-12-15T14:53:20.960Z,73.30
2022-12-15T14:55:49.031Z,73.10
2022-12-15T14:58:30.959Z,73.40
2022-12-15T15:00:59.094Z,73.40
2022-12-15T15:03:10.107Z,62.10
2022-12-15T15:03:10.970Z,59.80
2022-12-15T15:03:28.124Z,73.40
2022-12-15T15:05:57.605Z,73.50
2022-12-15T15:08:43.852Z,73.50
2022-12-15T15:11:23.833Z,73.10
2022-12-15T15:13:56.283Z,73.90
2022-12-15T15:16:24.062Z,74.40
2022-12-15T15:18:52.899Z,74.90
2022-12-15T15:21:25.719Z,74.70
2022-12-15T15:24:00.229Z,74.70
2022-12-15T15:26:28.653Z,75.30
2022-12-15T15:28:56.269Z,75.70
2022-12-15T15:31:42.280Z,75.80
2022-12-15T15:34:10.164Z,75.40
2022-12-15T15:36:39.071Z,75.00
2022-12-15T15:39:14.946Z,74.90
2022-12-15T15:41:42.837Z,75.50
2022-12-15T15:44:14.887Z,75.50
2022-12-15T15:46:52.337Z,75.00
2022-12-15T15:49:21.156Z,75.00
2022-12-15T15:51:49.233Z,74.90
2022-12-15T15:54:18.596Z,74.80
2022-12-15T15:56:46.460Z,74.90
2022-12-15T15:59:17.404Z,75.70
2022-12-15T16:01:46.834Z,75.00
2022-12-15T16:04:14.996Z,75.30
2022-12-15T16:06:47.355Z,74.90
2022-12-15T16:09:15.850Z,75.20
2022-12-15T16:11:44.968Z,75.00
2022-12-15T16:14:16.982Z,74.70
2022-12-15T16:16:44.822Z,75.00
2022-12-15T16:19:12.686Z,74.60
2022-12-15T16:21:40.492Z,75.40
2022-12-15T16:24:16.414Z,75.20
2022-12-15T16:26:52.830Z,75.30
2022-12-15T16:29:21.110Z,75.20
2022-12-15T16:31:48.899Z,75.40
2022-12-15T16:34:20.747Z,75.20
2022-12-15T16:36:48.365Z,75.50
2022-12-15T16:39:24.573Z,75.60
2022-12-15T16:41:52.927Z,75.60
2022-12-15T16:44:20.511Z,76.10
2022-12-15T16:46:48.201Z,75.70
2022-12-15T16:49:15.816Z,76.20
2022-12-15T16:51:45.430Z,76.40
2022-12-15T16:54:21.209Z,76.10
2022-12-15T16:56:48.810Z,76.30
2022-12-15T16:59:36.338Z,76.60
2022-12-15T17:02:27.223Z,76.40
2022-12-15T17:04:55.748Z,76.50
2022-12-15T17:07:24.632Z,76.40
2022-12-15T17:09:52.280Z,76.80
2022-12-15T17:12:19.948Z,77.10
2022-12-15T17:14:47.595Z,77.10
2022-12-15T17:17:16.156Z,76.70
2022-12-15T17:19:57.943Z,76.60
2022-12-15T17:22:26.871Z,76.70
2022-12-15T17:24:54.645Z,76.70
2022-12-15T17:27:29.905Z,76.80
2022-12-15T17:29:58.685Z,77.30
2022-12-15T17:32:27.242Z,78.10
2022-12-15T17:34:54.849Z,78.30
2022-12-15T17:37:22.508Z,78.20
2022-12-15T17:39:51.594Z,79.00
2022-12-15T17:42:19.997Z,79.00
2022-12-15T17:44:48.623Z,79.90
2022-12-15T17:47:16.841Z,79.80
2022-12-15T17:49:44.601Z,79.50
2022-12-15T17:52:34.683Z,79.80
2022-12-15T17:55:03.350Z,81.60
2022-12-15T17:57:33.802Z,81.40
2022-12-15T18:00:02.310Z,81.50
2022-12-15T18:02:30.357Z,81.30
2022-12-15T18:04:58.130Z,82.70
2022-12-15T18:07:25.747Z,82.90
2022-12-15T18:09:53.478Z,82.30
2022-12-15T18:12:22.676Z,83.10
2022-12-15T18:14:50.428Z,81.70
2022-12-15T18:17:18.168Z,81.60
2022-12-15T18:19:45.789Z,80.70
2022-12-15T18:22:21.216Z,81.80
2022-12-15T18:24:49.390Z,82.00
2022-12-15T18:27:24.112Z,82.30
2022-12-15T18:29:51.843Z,82.60
2022-12-15T18:32:20.109Z,83.50
2022-12-15T18:34:47.652Z,84.80
2022-12-15T18:37:19.824Z,83.70
2022-12-15T18:39:47.746Z,84.40
2022-12-15T18:42:16.612Z,83.90
2022-12-15T18:44:48.655Z,83.00
2022-12-15T18:47:18.064Z,81.70
2022-12-15T18:49:45.972Z,80.20
2022-12-15T18:52:20.962Z,80.90
2022-12-15T18:54:49.532Z,82.20
2022-12-15T18:57:23.076Z,81.50
2022-12-15T18:59:51.882Z,80.80
2022-12-15T19:02:19.569Z,80.50
2022-12-15T19:04:47.183Z,80.20
2022-12-15T19:07:14.799Z,80.50
2022-12-15T19:09:42.424Z,80.60
2022-12-15T19:12:18.991Z,80.40
2022-12-15T19:14:47.724Z,80.80
2022-12-15T19:17:34.823Z,80.70
2022-12-15T19:20:20.965Z,80.90
2022-12-15T19:22:49.381Z,81.80
2022-12-15T19:25:25.081Z,81.30
2022-12-15T19:28:00.004Z,81.10
2022-12-15T19:30:37.034Z,81.80
2022-12-15T19:33:09.152Z,80.70
2022-12-15T19:35:37.577Z,80.00
2022-12-15T19:38:05.539Z,81.20
2022-12-15T19:40:34.144Z,81.50
2022-12-15T19:43:02.697Z,81.90
2022-12-15T19:45:31.886Z,82.80
2022-12-15T19:48:00.804Z,82.30
2022-12-15T19:50:30.460Z,81.90
2022-12-15T19:52:59.839Z,81.50
2022-12-15T19:55:29.574Z,81.70
2022-12-15T19:57:57.905Z,82.50
2022-12-15T20:00:25.696Z,81.50
2022-12-15T20:02:55.037Z,81.40
2022-12-15T20:05:23.587Z,80.90
2022-12-15T20:07:52.121Z,81.10
2022-12-15T20:10:25.926Z,80.70
2022-12-15T20:12:57.269Z,80.70
2022-12-15T20:15:26.749Z,81.30
2022-12-15T20:17:57.226Z,80.70
2022-12-15T20:20:26.332Z,80.80
2022-12-15T20:22:55.172Z,80.60
2022-12-15T20:25:27.457Z,80.50
2022-12-15T20:27:55.087Z,80.40
2022-12-15T20:30:27.298Z,80.50
2022-12-15T20:32:54.880Z,81.00
2022-12-15T20:35:22.587Z,80.70
2022-12-15T20:37:51.075Z,81.10
2022-12-15T20:40:20.403Z,81.40
2022-12-15T20:42:49.115Z,82.00
2022-12-15T20:45:17.424Z,82.20
2022-12-15T20:47:46.750Z,81.40
2022-12-15T20:50:23.685Z,81.80
2022-12-15T20:52:51.343Z,81.90
2022-12-15T20:55:19.375Z,83.50
2022-12-15T20:57:47.602Z,82.50
2022-12-15T21:00:15.468Z,82.50
2022-12-15T21:02:43.574Z,82.50
2022-12-15T21:05:22.671Z,82.90
2022-12-15T21:07:50.825Z,83.50
2022-12-15T21:10:19.479Z,83.70
2022-12-15T21:12:49.577Z,83.70
2022-12-15T21:15:19.845Z,84.20
2022-12-15T21:17:57.952Z,84.10
2022-12-15T21:20:35.820Z,83.50
2022-12-15T21:23:03.899Z,84.10
2022-12-15T21:25:31.439Z,83.90
2022-12-15T21:27:58.986Z,84.00
2022-12-15T21:30:26.532Z,84.30
2022-12-15T21:32:54.085Z,83.20
2022-12-15T21:35:22.806Z,84.00
2022-12-15T21:37:51.851Z,85.30
2022-12-15T21:40:20.910Z,84.80
2022-12-15T21:42:49.215Z,84.10
2022-12-15T21:45:18.274Z,84.30
2022-12-15T21:48:04.068Z,84.90
2022-12-15T21:50:31.651Z,85.30
2022-12-15T21:52:59.657Z,83.70
2022-12-15T21:55:28.341Z,84.00
2022-12-15T21:57:56.850Z,84.50
2022-12-15T22:00:25.345Z,85.50
2022-12-15T22:02:54.034Z,84.60
2022-12-15T22:05:23.541Z,85.00
2022-12-15T22:07:51.722Z,85.90
2022-12-15T22:10:19.519Z,85.10
2022-12-15T22:12:53.411Z,85.40
2022-12-15T22:15:25.224Z,86.10
2022-12-15T22:17:52.738Z,85.70
2022-12-15T22:20:22.050Z,86.00
2022-12-15T22:22:49.880Z,85.70
2022-12-15T22:25:21.706Z,86.30
2022-12-15T22:27:49.480Z,86.50
2022-12-15T22:30:24.753Z,85.60
2022-12-15T22:32:52.765Z,85.30
2022-12-15T22:35:25.151Z,85.10
2022-12-15T22:37:56.584Z,84.90
2022-12-15T22:40:24.644Z,85.00
2022-12-15T22:42:55.614Z,85.30
2022-12-15T22:45:24.331Z,85.20
2022-12-15T22:47:53.118Z,85.00
2022-12-15T22:50:24.051Z,86.30
2022-12-15T22:52:52.018Z,86.90
2022-12-15T22:55:20.504Z,86.40
2022-12-15T22:57:56.496Z,86.40
2022-12-15T23:00:24.074Z,86.40
2022-12-15T23:02:51.753Z,86.50
2022-12-15T23:05:20.211Z,87.60
2022-12-15T23:07:47.859Z,86.80
2022-12-15T23:10:34.461Z,86.60
2022-12-15T23:13:01.999Z,86.40
2022-12-15T23:15:47.748Z,86.60
2022-12-15T23:18:16.138Z,86.80
2022-12-15T23:20:43.753Z,86.60
2022-12-15T23:23:11.259Z,86.40
2022-12-15T23:25:38.827Z,86.50
2022-12-15T23:28:06.375Z,85.90
2022-12-15T23:30:33.910Z,86.20
2022-12-15T23:33:01.428Z,86.30
2022-12-15T23:35:28.904Z,86.10
2022-12-15T23:37:57.828Z,85.90
2022-12-15T23:40:25.362Z,85.90
2022-12-15T23:42:53.971Z,86.20
2022-12-15T23:45:23.485Z,86.30
2022-12-15T23:47:51.045Z,87.00
2022-12-15T23:50:18.970Z,87.50
2022-12-15T23:52:51.205Z,86.50
2022-12-15T23:55:19.516Z,86.70
2022-12-15T23:57:47.113Z,87.10
